createdAt,value
2018-10-16T10:52:09.424Z,22.72
2018-10-16T10:54:37.131Z,22.72
2018-10-16T10:57:05.453Z,22.75
2018-10-16T10:59:34.483Z,22.78
2018-10-16T11:02:03.056Z,22.81
2018-10-16T11:04:30.728Z,22.85
2018-10-16T11:06:58.345Z,22.88
2018-10-16T11:09:25.973Z,22.91
2018-10-16T11:11:55.392Z,22.95
2018-10-16T11:14:24.048Z,22.99
2018-10-16T11:16:51.673Z,23.03
2018-10-16T11:19:19.792Z,23.04
2018-10-16T11:21:47.422Z,23.06
2018-10-16T11:24:21.796Z,23.06
2018-10-16T11:26:49.464Z,23.06
2018-10-16T11:29:17.149Z,23.05
2018-10-16T11:31:44.852Z,23.03
2018-10-16T11:34:12.517Z,23.03
2018-10-16T11:36:40.125Z,23.02
2018-10-16T11:39:09.936Z,23.00
2018-10-16T11:41:37.693Z,23.00
2018-10-16T11:44:05.789Z,22.99
2018-10-16T11:46:33.427Z,22.97
2018-10-16T11:49:01.070Z,22.98
2018-10-16T11:51:28.663Z,22.97
2018-10-16T11:53:56.282Z,22.98
2018-10-16T11:56:23.966Z,22.99
2018-10-16T11:58:51.577Z,22.98
2018-10-16T12:01:19.300Z,22.99
2018-10-16T12:03:53.615Z,22.98
2018-10-16T12:06:21.299Z,22.99
2018-10-16T12:08:48.945Z,22.99
2018-10-16T12:11:16.808Z,22.99
2018-10-16T12:13:44.293Z,23.01
2018-10-16T12:16:11.928Z,23.02
2018-10-16T12:18:43.577Z,23.04
2018-10-16T12:21:22.465Z,23.06
2018-10-16T12:23:50.159Z,23.08
2018-10-16T12:26:18.537Z,23.08
2018-10-16T12:28:46.354Z,23.13
2018-10-16T12:31:14.067Z,23.15
2018-10-16T12:33:41.692Z,23.17
2018-10-16T12:36:09.383Z,23.23
2018-10-16T12:38:37.035Z,23.28
2018-10-16T12:41:04.853Z,23.28
2018-10-16T12:43:32.653Z,23.29
2018-10-16T12:46:00.334Z,23.31
2018-10-16T12:48:28.283Z,23.32
2018-10-16T12:50:55.964Z,23.34
2018-10-16T12:53:23.951Z,23.37
2018-10-16T12:55:51.950Z,23.37
2018-10-16T12:58:19.649Z,23.36
2018-10-16T13:00:47.357Z,23.37
2018-10-16T13:03:15.124Z,23.37
2018-10-16T13:05:42.671Z,23.38
2018-10-16T13:08:10.411Z,23.38
2018-10-16T13:10:38.022Z,23.39
2018-10-16T13:13:05.691Z,23.41
2018-10-16T13:15:33.325Z,23.46
2018-10-16T13:18:01.010Z,23.44
2018-10-16T13:20:28.860Z,23.42
2018-10-16T13:22:56.703Z,23.39
2018-10-16T13:25:24.291Z,23.35
2018-10-16T13:27:51.944Z,23.32
2018-10-16T13:30:20.321Z,23.28
2018-10-16T13:32:49.041Z,23.26
2018-10-16T13:35:17.684Z,23.24
2018-10-16T13:37:46.004Z,23.22
2018-10-16T13:40:13.760Z,23.20
2018-10-16T13:42:41.461Z,23.18
2018-10-16T13:45:10.206Z,23.16
2018-10-16T13:47:37.895Z,23.14
2018-10-16T13:50:07.387Z,23.13
2018-10-16T13:52:35.104Z,23.11
2018-10-16T13:55:02.696Z,23.09
2018-10-16T13:57:30.281Z,23.07
2018-10-16T13:59:57.917Z,23.05
2018-10-16T14:02:25.602Z,23.03
2018-10-16T14:04:53.286Z,23.01
2018-10-16T14:07:20.922Z,23.00
2018-10-16T14:09:48.548Z,22.99
2018-10-16T14:12:16.184Z,22.97
2018-10-16T14:14:43.936Z,22.94
2018-10-16T14:17:11.572Z,22.93
2018-10-16T14:19:39.479Z,22.91
2018-10-16T14:22:07.276Z,22.90
2018-10-16T14:24:34.909Z,22.89
2018-10-16T14:27:02.607Z,22.88
2018-10-16T14:29:30.200Z,22.86
2018-10-16T14:31:58.011Z,22.84
2018-10-16T14:34:25.765Z,22.83
2018-10-16T14:36:53.337Z,22.82
2018-10-16T14:39:20.942Z,22.81
2018-10-16T14:41:48.521Z,22.80
2018-10-16T14:44:16.188Z,22.79
2018-10-16T14:46:43.815Z,22.79
2018-10-16T14:49:11.444Z,22.80
2018-10-16T14:51:39.076Z,22.83
2018-10-16T14:54:06.735Z,22.88
2018-10-16T14:56:34.828Z,23.10
2018-10-16T14:59:02.509Z,23.51
2018-10-16T15:01:30.169Z,23.78
2018-10-16T15:03:57.875Z,23.81
2018-10-16T15:06:25.801Z,23.61
2018-10-16T15:08:53.487Z,23.44
2018-10-16T15:11:21.064Z,23.33
2018-10-16T15:13:48.664Z,23.25
2018-10-16T15:16:16.650Z,23.20
2018-10-16T15:18:44.207Z,23.14
2018-10-16T15:21:11.818Z,23.08
2018-10-16T15:23:39.491Z,23.05
2018-10-16T15:26:07.360Z,23.01
2018-10-16T15:28:35.175Z,23.00
2018-10-16T15:31:02.874Z,22.97
2018-10-16T15:33:30.509Z,22.95
2018-10-16T15:35:58.391Z,22.91
2018-10-16T15:38:26.038Z,22.89
2018-10-16T15:40:53.671Z,22.87
2018-10-16T15:43:21.391Z,22.86
2018-10-16T15:45:49.000Z,22.87
2018-10-16T15:48:16.609Z,22.87
2018-10-16T15:50:44.283Z,22.85
2018-10-16T15:53:11.924Z,22.83
2018-10-16T15:55:39.599Z,22.79
2018-10-16T15:58:07.217Z,22.78
2018-10-16T16:00:34.880Z,22.77
2018-10-16T16:03:02.521Z,22.73
2018-10-16T16:05:30.163Z,22.73
2018-10-16T16:07:57.819Z,22.71
2018-10-16T16:10:25.414Z,22.68
2018-10-16T16:12:53.082Z,22.66
2018-10-16T16:15:20.737Z,22.63
2018-10-16T16:17:48.428Z,22.62
2018-10-16T16:20:16.194Z,22.61
2018-10-16T16:22:44.374Z,22.59
2018-10-16T16:25:13.719Z,22.58
2018-10-16T16:27:41.428Z,22.56
2018-10-16T16:30:11.257Z,22.55
2018-10-16T16:32:39.072Z,22.52
2018-10-16T16:35:07.040Z,22.50
2018-10-16T16:37:34.627Z,22.48
2018-10-16T16:40:02.411Z,22.48
2018-10-16T16:42:29.953Z,22.50
2018-10-16T16:44:57.651Z,22.51
2018-10-16T16:47:25.374Z,22.52
2018-10-16T16:49:53.236Z,22.54
2018-10-16T16:52:20.904Z,22.55
2018-10-16T16:54:48.744Z,22.53
2018-10-16T16:57:16.448Z,22.54
2018-10-16T16:59:44.117Z,22.54
2018-10-16T17:02:11.915Z,22.52
2018-10-16T17:04:39.540Z,22.48
2018-10-16T17:07:07.125Z,22.46
2018-10-16T17:09:34.898Z,22.42
2018-10-16T17:12:02.541Z,22.40
2018-10-16T17:14:30.172Z,22.39
2018-10-16T17:16:57.760Z,22.37
2018-10-16T17:19:25.430Z,22.35
2018-10-16T17:21:53.000Z,22.34
2018-10-16T17:24:20.646Z,22.33
2018-10-16T17:26:48.532Z,22.31
2018-10-16T17:29:15.998Z,22.29
2018-10-16T17:31:43.703Z,22.28
2018-10-16T17:34:11.380Z,22.26
2018-10-16T17:36:38.964Z,22.24
2018-10-16T17:39:08.266Z,22.25
2018-10-16T17:41:35.863Z,22.23
2018-10-16T17:44:03.420Z,22.21
2018-10-16T17:46:31.083Z,22.20
2018-10-16T17:48:58.821Z,22.19
2018-10-16T17:51:26.425Z,22.19
2018-10-16T17:53:54.327Z,22.18
2018-10-16T17:56:22.032Z,22.20
2018-10-16T17:58:49.600Z,22.23
2018-10-16T18:01:17.206Z,22.23
2018-10-16T18:03:44.828Z,22.23
2018-10-16T18:06:12.484Z,22.22
2018-10-16T18:08:40.212Z,22.22
2018-10-16T18:11:07.892Z,22.22
2018-10-16T18:13:35.520Z,22.22
2018-10-16T18:16:03.166Z,22.22
2018-10-16T18:18:30.783Z,22.21
2018-10-16T18:20:58.406Z,22.23
2018-10-16T18:23:26.255Z,22.24
2018-10-16T18:25:53.977Z,22.24
2018-10-16T18:28:21.681Z,22.24
2018-10-16T18:30:49.323Z,22.24
2018-10-16T18:33:17.075Z,22.24
2018-10-16T18:35:44.764Z,22.24
2018-10-16T18:38:12.366Z,22.24
2018-10-16T18:40:40.034Z,22.23
2018-10-16T18:43:07.647Z,22.22
2018-10-16T18:45:35.300Z,22.19
2018-10-16T18:48:02.917Z,22.20
2018-10-16T18:50:30.585Z,22.20
2018-10-16T18:52:58.314Z,22.20
2018-10-16T18:55:25.906Z,22.20
2018-10-16T18:57:53.590Z,22.20
2018-10-16T19:00:21.205Z,22.20
2018-10-16T19:02:49.144Z,22.20
2018-10-16T19:05:16.768Z,22.19
2018-10-16T19:07:44.423Z,22.20
2018-10-16T19:10:12.035Z,22.17
2018-10-16T19:12:40.584Z,22.15
2018-10-16T19:15:10.245Z,22.16
2018-10-16T19:17:37.819Z,22.17
2018-10-16T19:20:07.207Z,22.17
2018-10-16T19:22:34.816Z,22.17
2018-10-16T19:25:02.437Z,22.15
2018-10-16T19:27:30.076Z,22.15
2018-10-16T19:29:57.721Z,22.13
2018-10-16T19:32:25.382Z,22.11
2018-10-16T19:34:53.068Z,22.12
2018-10-16T19:37:20.784Z,22.12
2018-10-16T19:39:48.387Z,22.14
2018-10-16T19:42:15.993Z,22.12
2018-10-16T19:44:43.737Z,22.12
2018-10-16T19:47:11.317Z,22.11
2018-10-16T19:49:39.024Z,22.12
2018-10-16T19:52:06.760Z,22.11
2018-10-16T19:54:34.384Z,22.10
2018-10-16T19:57:02.108Z,22.10
2018-10-16T19:59:29.768Z,22.11
2018-10-16T20:01:57.409Z,22.11
2018-10-16T20:04:25.023Z,22.10
2018-10-16T20:06:52.726Z,22.09
2018-10-16T20:09:20.457Z,22.08
2018-10-16T20:11:48.325Z,22.08
2018-10-16T20:14:16.042Z,22.06
2018-10-16T20:16:43.642Z,22.07
2018-10-16T20:19:11.290Z,22.08
2018-10-16T20:21:38.945Z,22.06
2018-10-16T20:24:06.742Z,22.06
2018-10-16T20:26:34.333Z,22.07
2018-10-16T20:29:01.900Z,22.06
2018-10-16T20:31:29.493Z,22.05
2018-10-16T20:33:57.136Z,22.05
2018-10-16T20:36:24.841Z,22.07
2018-10-16T20:38:52.452Z,22.05
2018-10-16T20:41:20.092Z,22.04
2018-10-16T20:43:47.717Z,22.06
2018-10-16T20:46:15.293Z,22.04
2018-10-16T20:48:43.016Z,22.03
2018-10-16T20:51:10.671Z,22.03
2018-10-16T20:53:38.281Z,22.03
2018-10-16T20:56:05.987Z,21.99
2018-10-16T20:58:33.565Z,21.98
2018-10-16T21:01:01.598Z,21.99
2018-10-16T21:03:29.141Z,21.99
2018-10-16T21:05:56.947Z,22.01
2018-10-16T21:08:24.524Z,22.02
2018-10-16T21:10:52.210Z,22.01
2018-10-16T21:13:20.687Z,21.99
2018-10-16T21:15:48.307Z,21.98
2018-10-16T21:18:15.946Z,21.98
2018-10-16T21:20:43.568Z,21.98
2018-10-16T21:23:11.198Z,21.97
2018-10-16T21:25:38.773Z,21.97
2018-10-16T21:28:06.435Z,21.96
2018-10-16T21:30:34.016Z,21.94
2018-10-16T21:33:01.678Z,21.93
2018-10-16T21:35:29.285Z,21.90
2018-10-16T21:37:56.879Z,21.87
2018-10-16T21:40:24.458Z,21.87
2018-10-16T21:42:52.130Z,21.86
2018-10-16T21:45:19.758Z,21.85
2018-10-16T21:47:47.368Z,21.85
2018-10-16T21:50:15.054Z,21.85
2018-10-16T21:52:42.679Z,21.83
2018-10-16T21:55:10.342Z,21.83
2018-10-16T21:57:37.936Z,21.80
2018-10-16T22:00:08.272Z,21.78
2018-10-16T22:02:41.461Z,21.78
2018-10-16T22:05:09.217Z,21.78
2018-10-16T22:07:36.692Z,21.78
2018-10-16T22:10:05.045Z,21.75
2018-10-16T22:12:32.694Z,21.73
2018-10-16T22:15:00.346Z,21.73
2018-10-16T22:17:27.895Z,21.73
2018-10-16T22:19:55.468Z,21.74
2018-10-16T22:22:23.100Z,21.74
2018-10-16T22:24:50.779Z,21.75
2018-10-16T22:27:18.382Z,21.75
2018-10-16T22:29:46.011Z,21.75
2018-10-16T22:32:13.661Z,21.73
2018-10-16T22:34:41.218Z,21.72
2018-10-16T22:37:08.905Z,21.72
2018-10-16T22:39:36.451Z,21.70
2018-10-16T22:42:04.207Z,21.69
2018-10-16T22:44:31.856Z,21.69
2018-10-16T22:46:59.564Z,21.69
2018-10-16T22:49:27.105Z,21.68
2018-10-16T22:51:54.776Z,21.66
2018-10-16T22:54:22.352Z,21.66
2018-10-16T22:56:49.915Z,21.67
2018-10-16T22:59:17.552Z,21.67
2018-10-16T23:01:45.129Z,21.67
2018-10-16T23:04:12.761Z,21.67
2018-10-16T23:06:40.391Z,21.66
2018-10-16T23:09:08.995Z,21.66
2018-10-16T23:11:36.761Z,21.67
2018-10-16T23:16:31.344Z,21.65
2018-10-16T23:18:58.988Z,21.64
2018-10-16T23:21:26.620Z,21.63
2018-10-16T23:23:54.226Z,21.63
2018-10-16T23:26:21.824Z,21.61
2018-10-16T23:28:49.448Z,21.59
2018-10-16T23:31:17.163Z,21.58
2018-10-16T23:33:44.759Z,21.57
2018-10-16T23:36:12.378Z,21.56
2018-10-16T23:38:40.086Z,21.56
2018-10-16T23:41:07.777Z,21.56
2018-10-16T23:43:35.358Z,21.56
2018-10-16T23:46:02.986Z,21.55
2018-10-16T23:48:30.665Z,21.53
2018-10-16T23:50:58.280Z,21.52
2018-10-16T23:53:25.876Z,21.52
2018-10-16T23:55:53.483Z,21.53
2018-10-16T23:58:21.165Z,21.49
